sensor_id;sensor_type;location;lat;lon;timestamp;P1;durP1;ratioP1;P2;durP2;ratioP2
24801;SDS011;12898;50.520;12.152;2023-08-21T00:01:36;21.98;;;15.93;;
24801;SDS011;12898;50.520;12.152;2023-08-21T00:04:02;19.52;;;14.65;;
24801;SDS011;12898;50.520;12.152;2023-08-21T00:06:28;19.52;;;15.45;;
24801;SDS011;12898;50.520;12.152;2023-08-21T00:08:53;19.23;;;14.80;;
24801;SDS011;12898;50.520;12.152;2023-08-21T00:11:19;17.38;;;14.75;;
24801;SDS011;12898;50.520;12.152;2023-08-21T00:13:45;20.88;;;15.57;;
24801;SDS011;12898;50.520;12.152;2023-08-21T00:16:13;22.58;;;15.85;;
24801;SDS011;12898;50.520;12.152;2023-08-21T00:18:39;19.10;;;15.15;;
24801;SDS011;12898;50.520;12.152;2023-08-21T00:21:04;19.85;;;16.10;;
24801;SDS011;12898;50.520;12.152;2023-08-21T00:23:30;23.65;;;15.68;;
24801;SDS011;12898;50.520;12.152;2023-08-21T00:25:56;20.73;;;17.58;;
24801;SDS011;12898;50.520;12.152;2023-08-21T00:28:22;20.35;;;15.73;;
24801;SDS011;12898;50.520;12.152;2023-08-21T00:30:47;21.15;;;15.82;;
24801;SDS011;12898;50.520;12.152;2023-08-21T00:33:13;19.20;;;15.68;;
24801;SDS011;12898;50.520;12.152;2023-08-21T00:35:39;18.10;;;14.75;;
24801;SDS011;12898;50.520;12.152;2023-08-21T00:38:04;20.95;;;15.95;;
24801;SDS011;12898;50.520;12.152;2023-08-21T00:40:30;20.73;;;16.48;;
24801;SDS011;12898;50.520;12.152;2023-08-21T00:42:56;21.20;;;16.05;;
24801;SDS011;12898;50.520;12.152;2023-08-21T00:45:22;19.42;;;16.45;;
24801;SDS011;12898;50.520;12.152;2023-08-21T00:47:48;18.42;;;14.45;;
24801;SDS011;12898;50.520;12.152;2023-08-21T00:50:14;20.13;;;15.52;;
24801;SDS011;12898;50.520;12.152;2023-08-21T00:52:40;22.20;;;15.25;;
24801;SDS011;12898;50.520;12.152;2023-08-21T00:55:10;20.90;;;17.50;;
24801;SDS011;12898;50.520;12.152;2023-08-21T00:57:36;21.80;;;16.48;;
24801;SDS011;12898;50.520;12.152;2023-08-21T01:00:02;20.08;;;16.40;;
24801;SDS011;12898;50.520;12.152;2023-08-21T01:02:30;17.15;;;15.35;;
24801;SDS011;12898;50.520;12.152;2023-08-21T01:04:55;22.30;;;18.10;;
24801;SDS011;12898;50.520;12.152;2023-08-21T01:07:21;22.83;;;18.23;;
24801;SDS011;12898;50.520;12.152;2023-08-21T01:12:29;20.90;;;17.90;;
24801;SDS011;12898;50.520;12.152;2023-08-21T01:15:27;21.02;;;17.98;;
24801;SDS011;12898;50.520;12.152;2023-08-21T01:17:54;21.35;;;17.95;;
24801;SDS011;12898;50.520;12.152;2023-08-21T01:20:20;19.02;;;16.88;;
24801;SDS011;12898;50.520;12.152;2023-08-21T01:22:46;21.35;;;16.45;;
24801;SDS011;12898;50.520;12.152;2023-08-21T01:25:12;21.55;;;17.65;;
24801;SDS011;12898;50.520;12.152;2023-08-21T01:27:38;23.83;;;16.15;;
24801;SDS011;12898;50.520;12.152;2023-08-21T01:30:12;18.75;;;16.58;;
24801;SDS011;12898;50.520;12.152;2023-08-21T01:35:27;22.42;;;18.17;;
24801;SDS011;12898;50.520;12.152;2023-08-21T01:37:55;21.85;;;18.63;;
24801;SDS011;12898;50.520;12.152;2023-08-21T01:40:24;23.85;;;19.92;;
24801;SDS011;12898;50.520;12.152;2023-08-21T01:42:50;24.08;;;19.23;;
24801;SDS011;12898;50.520;12.152;2023-08-21T01:45:17;22.65;;;20.00;;
24801;SDS011;12898;50.520;12.152;2023-08-21T01:47:43;21.63;;;19.27;;
24801;SDS011;12898;50.520;12.152;2023-08-21T01:50:09;23.77;;;19.17;;
24801;SDS011;12898;50.520;12.152;2023-08-21T01:52:34;21.67;;;18.48;;
24801;SDS011;12898;50.520;12.152;2023-08-21T01:55:00;24.55;;;19.90;;
24801;SDS011;12898;50.520;12.152;2023-08-21T01:57:26;25.20;;;20.83;;
24801;SDS011;12898;50.520;12.152;2023-08-21T01:59:51;23.65;;;19.70;;
24801;SDS011;12898;50.520;12.152;2023-08-21T02:02:17;24.92;;;20.27;;
24801;SDS011;12898;50.520;12.152;2023-08-21T02:04:43;23.30;;;19.52;;
24801;SDS011;12898;50.520;12.152;2023-08-21T02:07:08;25.75;;;20.38;;
24801;SDS011;12898;50.520;12.152;2023-08-21T02:09:34;25.00;;;19.27;;
24801;SDS011;12898;50.520;12.152;2023-08-21T02:12:00;26.13;;;19.48;;
24801;SDS011;12898;50.520;12.152;2023-08-21T02:14:25;26.35;;;19.60;;
24801;SDS011;12898;50.520;12.152;2023-08-21T02:16:51;20.75;;;17.88;;
24801;SDS011;12898;50.520;12.152;2023-08-21T02:19:17;22.30;;;18.10;;
24801;SDS011;12898;50.520;12.152;2023-08-21T02:21:42;22.25;;;18.15;;
24801;SDS011;12898;50.520;12.152;2023-08-21T02:24:08;22.75;;;19.42;;
24801;SDS011;12898;50.520;12.152;2023-08-21T02:26:34;23.38;;;18.77;;
24801;SDS011;12898;50.520;12.152;2023-08-21T02:28:59;21.13;;;17.67;;
24801;SDS011;12898;50.520;12.152;2023-08-21T02:31:26;19.75;;;16.73;;
24801;SDS011;12898;50.520;12.152;2023-08-21T02:33:51;20.75;;;16.45;;
24801;SDS011;12898;50.520;12.152;2023-08-21T02:36:17;19.00;;;16.95;;
24801;SDS011;12898;50.520;12.152;2023-08-21T02:38:43;21.73;;;17.27;;
24801;SDS011;12898;50.520;12.152;2023-08-21T02:41:08;21.52;;;16.70;;
24801;SDS011;12898;50.520;12.152;2023-08-21T02:43:34;20.55;;;17.08;;
24801;SDS011;12898;50.520;12.152;2023-08-21T02:45:59;22.10;;;17.30;;
24801;SDS011;12898;50.520;12.152;2023-08-21T02:48:25;19.40;;;16.80;;
24801;SDS011;12898;50.520;12.152;2023-08-21T02:50:51;22.85;;;18.52;;
24801;SDS011;12898;50.520;12.152;2023-08-21T02:53:16;23.40;;;17.77;;
24801;SDS011;12898;50.520;12.152;2023-08-21T02:55:42;21.48;;;16.30;;
24801;SDS011;12898;50.520;12.152;2023-08-21T02:58:08;18.90;;;16.17;;
24801;SDS011;12898;50.520;12.152;2023-08-21T03:00:34;19.67;;;15.52;;
24801;SDS011;12898;50.520;12.152;2023-08-21T03:03:00;20.40;;;17.00;;
24801;SDS011;12898;50.520;12.152;2023-08-21T03:05:26;22.88;;;18.25;;
24801;SDS011;12898;50.520;12.152;2023-08-21T03:07:51;22.08;;;18.40;;
24801;SDS011;12898;50.520;12.152;2023-08-21T03:10:17;22.83;;;18.73;;
24801;SDS011;12898;50.520;12.152;2023-08-21T03:12:43;22.25;;;18.65;;
24801;SDS011;12898;50.520;12.152;2023-08-21T03:15:09;22.23;;;17.20;;
24801;SDS011;12898;50.520;12.152;2023-08-21T03:17:34;20.00;;;17.70;;
24801;SDS011;12898;50.520;12.152;2023-08-21T03:20:00;26.23;;;19.05;;
24801;SDS011;12898;50.520;12.152;2023-08-21T03:22:29;22.45;;;18.85;;
24801;SDS011;12898;50.520;12.152;2023-08-21T03:24:56;21.77;;;18.23;;
24801;SDS011;12898;50.520;12.152;2023-08-21T03:27:22;21.08;;;18.13;;
24801;SDS011;12898;50.520;12.152;2023-08-21T03:29:49;22.73;;;18.08;;
24801;SDS011;12898;50.520;12.152;2023-08-21T03:32:15;22.88;;;18.13;;
24801;SDS011;12898;50.520;12.152;2023-08-21T03:34:42;21.80;;;17.80;;
24801;SDS011;12898;50.520;12.152;2023-08-21T03:37:08;21.38;;;17.30;;
24801;SDS011;12898;50.520;12.152;2023-08-21T03:39:34;24.80;;;19.75;;
24801;SDS011;12898;50.520;12.152;2023-08-21T03:42:00;24.63;;;19.25;;
24801;SDS011;12898;50.520;12.152;2023-08-21T03:44:26;24.60;;;20.38;;
24801;SDS011;12898;50.520;12.152;2023-08-21T03:46:51;22.65;;;17.63;;
24801;SDS011;12898;50.520;12.152;2023-08-21T03:49:17;22.77;;;18.35;;
24801;SDS011;12898;50.520;12.152;2023-08-21T03:51:43;22.27;;;18.45;;
24801;SDS011;12898;50.520;12.152;2023-08-21T03:54:08;22.98;;;18.73;;
24801;SDS011;12898;50.520;12.152;2023-08-21T03:56:34;23.52;;;18.00;;
24801;SDS011;12898;50.520;12.152;2023-08-21T03:59:00;22.73;;;18.60;;
24801;SDS011;12898;50.520;12.152;2023-08-21T04:01:25;23.48;;;19.60;;
24801;SDS011;12898;50.520;12.152;2023-08-21T04:03:51;26.77;;;19.50;;
24801;SDS011;12898;50.520;12.152;2023-08-21T04:06:17;26.08;;;22.45;;
24801;SDS011;12898;50.520;12.152;2023-08-21T04:08:43;26.33;;;21.92;;
24801;SDS011;12898;50.520;12.152;2023-08-21T04:11:09;25.88;;;20.92;;
24801;SDS011;12898;50.520;12.152;2023-08-21T04:13:34;28.40;;;22.23;;
24801;SDS011;12898;50.520;12.152;2023-08-21T04:16:00;26.42;;;21.35;;
24801;SDS011;12898;50.520;12.152;2023-08-21T04:18:26;23.02;;;19.45;;
24801;SDS011;12898;50.520;12.152;2023-08-21T04:20:51;23.65;;;20.30;;
24801;SDS011;12898;50.520;12.152;2023-08-21T04:23:17;25.88;;;20.20;;
24801;SDS011;12898;50.520;12.152;2023-08-21T04:25:42;22.30;;;19.05;;
24801;SDS011;12898;50.520;12.152;2023-08-21T04:28:08;23.35;;;19.35;;
24801;SDS011;12898;50.520;12.152;2023-08-21T04:30:34;23.45;;;19.48;;
24801;SDS011;12898;50.520;12.152;2023-08-21T04:33:00;28.08;;;19.90;;
24801;SDS011;12898;50.520;12.152;2023-08-21T04:35:26;24.65;;;20.65;;
24801;SDS011;12898;50.520;12.152;2023-08-21T04:37:51;23.63;;;20.90;;
24801;SDS011;12898;50.520;12.152;2023-08-21T04:40:17;28.63;;;22.98;;
24801;SDS011;12898;50.520;12.152;2023-08-21T04:42:45;25.95;;;22.38;;
24801;SDS011;12898;50.520;12.152;2023-08-21T04:45:11;22.38;;;19.48;;
24801;SDS011;12898;50.520;12.152;2023-08-21T04:47:37;21.80;;;18.70;;
24801;SDS011;12898;50.520;12.152;2023-08-21T04:50:03;20.40;;;17.23;;
24801;SDS011;12898;50.520;12.152;2023-08-21T04:52:29;22.80;;;17.60;;
24801;SDS011;12898;50.520;12.152;2023-08-21T04:54:55;19.80;;;16.13;;
24801;SDS011;12898;50.520;12.152;2023-08-21T04:57:21;20.00;;;17.27;;
24801;SDS011;12898;50.520;12.152;2023-08-21T04:59:47;21.33;;;18.35;;
24801;SDS011;12898;50.520;12.152;2023-08-21T05:02:13;23.88;;;18.48;;
24801;SDS011;12898;50.520;12.152;2023-08-21T05:04:39;24.50;;;19.50;;
24801;SDS011;12898;50.520;12.152;2023-08-21T05:07:05;23.00;;;19.02;;
24801;SDS011;12898;50.520;12.152;2023-08-21T05:09:33;26.27;;;21.05;;
24801;SDS011;12898;50.520;12.152;2023-08-21T05:11:59;25.25;;;19.88;;
24801;SDS011;12898;50.520;12.152;2023-08-21T05:14:24;25.98;;;21.73;;
24801;SDS011;12898;50.520;12.152;2023-08-21T05:16:50;26.45;;;23.23;;
24801;SDS011;12898;50.520;12.152;2023-08-21T05:19:16;22.80;;;20.33;;
24801;SDS011;12898;50.520;12.152;2023-08-21T05:21:42;25.98;;;22.05;;
24801;SDS011;12898;50.520;12.152;2023-08-21T05:24:08;28.35;;;23.58;;
24801;SDS011;12898;50.520;12.152;2023-08-21T05:26:37;27.50;;;23.23;;
24801;SDS011;12898;50.520;12.152;2023-08-21T05:29:04;28.50;;;23.90;;
24801;SDS011;12898;50.520;12.152;2023-08-21T05:31:29;26.00;;;23.05;;
24801;SDS011;12898;50.520;12.152;2023-08-21T05:33:55;27.27;;;23.25;;
24801;SDS011;12898;50.520;12.152;2023-08-21T05:36:21;26.67;;;22.52;;
24801;SDS011;12898;50.520;12.152;2023-08-21T05:38:47;32.72;;;28.67;;
24801;SDS011;12898;50.520;12.152;2023-08-21T05:41:14;26.90;;;23.10;;
24801;SDS011;12898;50.520;12.152;2023-08-21T05:43:39;28.33;;;25.27;;
24801;SDS011;12898;50.520;12.152;2023-08-21T05:46:07;28.35;;;23.42;;
24801;SDS011;12898;50.520;12.152;2023-08-21T05:48:33;26.00;;;23.27;;
24801;SDS011;12898;50.520;12.152;2023-08-21T05:50:59;28.38;;;21.50;;
24801;SDS011;12898;50.520;12.152;2023-08-21T05:53:25;24.50;;;19.30;;
24801;SDS011;12898;50.520;12.152;2023-08-21T05:55:51;23.10;;;19.80;;
24801;SDS011;12898;50.520;12.152;2023-08-21T05:58:18;23.63;;;21.05;;
24801;SDS011;12898;50.520;12.152;2023-08-21T06:00:44;25.13;;;22.52;;
24801;SDS011;12898;50.520;12.152;2023-08-21T06:03:11;25.67;;;22.13;;
24801;SDS011;12898;50.520;12.152;2023-08-21T06:05:37;25.05;;;21.60;;
24801;SDS011;12898;50.520;12.152;2023-08-21T06:08:02;23.63;;;20.17;;
24801;SDS011;12898;50.520;12.152;2023-08-21T06:10:28;23.10;;;19.77;;
24801;SDS011;12898;50.520;12.152;2023-08-21T06:12:56;28.83;;;21.65;;
24801;SDS011;12898;50.520;12.152;2023-08-21T06:15:21;26.45;;;22.10;;
24801;SDS011;12898;50.520;12.152;2023-08-21T06:17:47;24.52;;;21.63;;
24801;SDS011;12898;50.520;12.152;2023-08-21T06:20:13;23.20;;;19.95;;
24801;SDS011;12898;50.520;12.152;2023-08-21T06:22:39;22.33;;;18.95;;
24801;SDS011;12898;50.520;12.152;2023-08-21T06:25:05;31.52;;;21.73;;
24801;SDS011;12898;50.520;12.152;2023-08-21T06:27:31;26.27;;;20.05;;
24801;SDS011;12898;50.520;12.152;2023-08-21T06:29:56;21.95;;;19.25;;
24801;SDS011;12898;50.520;12.152;2023-08-21T06:32:22;23.48;;;19.23;;
24801;SDS011;12898;50.520;12.152;2023-08-21T06:34:48;22.52;;;19.27;;
24801;SDS011;12898;50.520;12.152;2023-08-21T06:37:13;22.45;;;18.98;;
24801;SDS011;12898;50.520;12.152;2023-08-21T06:39:39;23.05;;;19.60;;
24801;SDS011;12898;50.520;12.152;2023-08-21T06:42:05;23.98;;;19.52;;
24801;SDS011;12898;50.520;12.152;2023-08-21T06:44:31;25.02;;;18.92;;
24801;SDS011;12898;50.520;12.152;2023-08-21T06:46:57;24.58;;;19.02;;
24801;SDS011;12898;50.520;12.152;2023-08-21T06:49:22;22.85;;;18.75;;
24801;SDS011;12898;50.520;12.152;2023-08-21T06:51:48;23.73;;;18.27;;
24801;SDS011;12898;50.520;12.152;2023-08-21T06:54:14;19.27;;;16.60;;
24801;SDS011;12898;50.520;12.152;2023-08-21T06:56:40;20.25;;;15.35;;
24801;SDS011;12898;50.520;12.152;2023-08-21T06:59:06;19.90;;;16.55;;
24801;SDS011;12898;50.520;12.152;2023-08-21T07:01:32;19.17;;;15.80;;
24801;SDS011;12898;50.520;12.152;2023-08-21T07:03:58;18.38;;;15.30;;
24801;SDS011;12898;50.520;12.152;2023-08-21T07:06:23;19.15;;;16.20;;
24801;SDS011;12898;50.520;12.152;2023-08-21T07:08:49;20.50;;;17.42;;
24801;SDS011;12898;50.520;12.152;2023-08-21T07:11:15;18.63;;;15.23;;
24801;SDS011;12898;50.520;12.152;2023-08-21T07:13:42;22.02;;;16.33;;
24801;SDS011;12898;50.520;12.152;2023-08-21T07:16:08;21.42;;;16.65;;
24801;SDS011;12898;50.520;12.152;2023-08-21T07:18:33;20.20;;;16.83;;
24801;SDS011;12898;50.520;12.152;2023-08-21T07:21:00;19.13;;;15.52;;
24801;SDS011;12898;50.520;12.152;2023-08-21T07:23:28;18.60;;;16.45;;
24801;SDS011;12898;50.520;12.152;2023-08-21T07:25:54;19.33;;;15.73;;
24801;SDS011;12898;50.520;12.152;2023-08-21T07:28:19;17.75;;;15.02;;
24801;SDS011;12898;50.520;12.152;2023-08-21T07:30:45;17.30;;;14.68;;
24801;SDS011;12898;50.520;12.152;2023-08-21T07:33:11;18.42;;;15.20;;
24801;SDS011;12898;50.520;12.152;2023-08-21T07:35:36;18.42;;;13.68;;
24801;SDS011;12898;50.520;12.152;2023-08-21T07:38:02;19.92;;;13.63;;
24801;SDS011;12898;50.520;12.152;2023-08-21T07:40:28;19.10;;;14.15;;
24801;SDS011;12898;50.520;12.152;2023-08-21T07:42:54;17.63;;;14.23;;
24801;SDS011;12898;50.520;12.152;2023-08-21T07:45:20;15.63;;;13.20;;
24801;SDS011;12898;50.520;12.152;2023-08-21T07:47:46;18.02;;;14.20;;
24801;SDS011;12898;50.520;12.152;2023-08-21T07:50:11;15.90;;;13.20;;
24801;SDS011;12898;50.520;12.152;2023-08-21T07:52:39;17.00;;;13.35;;
24801;SDS011;12898;50.520;12.152;2023-08-21T07:55:05;17.58;;;13.15;;
24801;SDS011;12898;50.520;12.152;2023-08-21T07:57:32;15.80;;;12.57;;
24801;SDS011;12898;50.520;12.152;2023-08-21T07:59:58;17.55;;;12.48;;
24801;SDS011;12898;50.520;12.152;2023-08-21T08:02:23;16.48;;;11.98;;
24801;SDS011;12898;50.520;12.152;2023-08-21T08:04:49;15.35;;;12.18;;
24801;SDS011;12898;50.520;12.152;2023-08-21T08:07:15;16.65;;;12.35;;
24801;SDS011;12898;50.520;12.152;2023-08-21T08:09:41;14.05;;;11.38;;
24801;SDS011;12898;50.520;12.152;2023-08-21T08:12:06;19.75;;;12.93;;
24801;SDS011;12898;50.520;12.152;2023-08-21T08:14:32;18.20;;;14.25;;
24801;SDS011;12898;50.520;12.152;2023-08-21T08:16:58;16.67;;;13.13;;
24801;SDS011;12898;50.520;12.152;2023-08-21T08:19:23;16.95;;;13.52;;
24801;SDS011;12898;50.520;12.152;2023-08-21T08:21:49;19.67;;;13.82;;
24801;SDS011;12898;50.520;12.152;2023-08-21T08:24:15;18.83;;;14.35;;
24801;SDS011;12898;50.520;12.152;2023-08-21T08:26:40;17.05;;;13.02;;
24801;SDS011;12898;50.520;12.152;2023-08-21T08:29:08;16.15;;;12.48;;
24801;SDS011;12898;50.520;12.152;2023-08-21T08:31:34;15.68;;;13.15;;
24801;SDS011;12898;50.520;12.152;2023-08-21T08:33:59;19.55;;;12.95;;
24801;SDS011;12898;50.520;12.152;2023-08-21T08:36:25;14.60;;;12.40;;
24801;SDS011;12898;50.520;12.152;2023-08-21T08:38:51;15.15;;;12.45;;
24801;SDS011;12898;50.520;12.152;2023-08-21T08:41:21;15.88;;;12.40;;
24801;SDS011;12898;50.520;12.152;2023-08-21T08:43:56;15.75;;;12.25;;
24801;SDS011;12898;50.520;12.152;2023-08-21T08:46:25;14.85;;;10.98;;
24801;SDS011;12898;50.520;12.152;2023-08-21T08:48:54;14.68;;;11.13;;
24801;SDS011;12898;50.520;12.152;2023-08-21T08:51:20;14.98;;;10.48;;
24801;SDS011;12898;50.520;12.152;2023-08-21T08:53:47;12.63;;;9.82;;
24801;SDS011;12898;50.520;12.152;2023-08-21T08:56:12;14.68;;;10.15;;
24801;SDS011;12898;50.520;12.152;2023-08-21T08:58:38;11.95;;;9.00;;
24801;SDS011;12898;50.520;12.152;2023-08-21T09:01:07;12.90;;;9.32;;
24801;SDS011;12898;50.520;12.152;2023-08-21T09:03:35;14.27;;;9.82;;
24801;SDS011;12898;50.520;12.152;2023-08-21T09:06:01;15.25;;;10.48;;
24801;SDS011;12898;50.520;12.152;2023-08-21T09:08:29;14.90;;;10.77;;
24801;SDS011;12898;50.520;12.152;2023-08-21T09:10:54;12.65;;;9.20;;
24801;SDS011;12898;50.520;12.152;2023-08-21T09:13:20;14.15;;;8.88;;
24801;SDS011;12898;50.520;12.152;2023-08-21T09:15:47;14.35;;;9.43;;
24801;SDS011;12898;50.520;12.152;2023-08-21T09:18:18;10.98;;;8.07;;
24801;SDS011;12898;50.520;12.152;2023-08-21T09:20:44;12.38;;;8.10;;
24801;SDS011;12898;50.520;12.152;2023-08-21T09:23:13;11.38;;;8.25;;
24801;SDS011;12898;50.520;12.152;2023-08-21T09:25:47;13.32;;;8.00;;
24801;SDS011;12898;50.520;12.152;2023-08-21T09:28:13;12.00;;;8.27;;
24801;SDS011;12898;50.520;12.152;2023-08-21T09:30:54;15.63;;;8.00;;
24801;SDS011;12898;50.520;12.152;2023-08-21T09:33:20;11.38;;;8.30;;
24801;SDS011;12898;50.520;12.152;2023-08-21T09:35:48;11.23;;;8.10;;
24801;SDS011;12898;50.520;12.152;2023-08-21T09:38:16;11.35;;;8.32;;
24801;SDS011;12898;50.520;12.152;2023-08-21T09:40:49;12.25;;;8.00;;
24801;SDS011;12898;50.520;12.152;2023-08-21T09:43:17;16.00;;;8.00;;
24801;SDS011;12898;50.520;12.152;2023-08-21T09:45:45;11.48;;;7.65;;
24801;SDS011;12898;50.520;12.152;2023-08-21T09:48:13;10.52;;;7.97;;
24801;SDS011;12898;50.520;12.152;2023-08-21T09:50:39;11.95;;;8.55;;
24801;SDS011;12898;50.520;12.152;2023-08-21T09:53:08;10.57;;;7.82;;
24801;SDS011;12898;50.520;12.152;2023-08-21T09:55:35;11.10;;;8.13;;
24801;SDS011;12898;50.520;12.152;2023-08-21T09:58:03;11.52;;;7.68;;
24801;SDS011;12898;50.520;12.152;2023-08-21T10:00:30;11.68;;;8.18;;
24801;SDS011;12898;50.520;12.152;2023-08-21T10:03:11;12.27;;;8.35;;
24801;SDS011;12898;50.520;12.152;2023-08-21T10:05:39;10.73;;;8.20;;
24801;SDS011;12898;50.520;12.152;2023-08-21T10:08:05;12.85;;;8.60;;
24801;SDS011;12898;50.520;12.152;2023-08-21T10:10:33;12.95;;;8.15;;
24801;SDS011;12898;50.520;12.152;2023-08-21T10:13:02;11.90;;;8.73;;
24801;SDS011;12898;50.520;12.152;2023-08-21T10:15:29;12.32;;;8.30;;
24801;SDS011;12898;50.520;12.152;2023-08-21T10:17:56;11.18;;;7.93;;
24801;SDS011;12898;50.520;12.152;2023-08-21T10:20:23;12.85;;;7.78;;
24801;SDS011;12898;50.520;12.152;2023-08-21T10:22:52;12.27;;;7.70;;
24801;SDS011;12898;50.520;12.152;2023-08-21T10:25:22;12.55;;;7.93;;
24801;SDS011;12898;50.520;12.152;2023-08-21T10:27:54;12.23;;;7.90;;
24801;SDS011;12898;50.520;12.152;2023-08-21T10:30:22;10.73;;;7.85;;
24801;SDS011;12898;50.520;12.152;2023-08-21T10:32:51;11.95;;;7.60;;
24801;SDS011;12898;50.520;12.152;2023-08-21T10:35:22;11.30;;;7.38;;
24801;SDS011;12898;50.520;12.152;2023-08-21T10:40:39;9.77;;;7.03;;
24801;SDS011;12898;50.520;12.152;2023-08-21T10:46:05;15.43;;;8.65;;
24801;SDS011;12898;50.520;12.152;2023-08-21T10:48:31;16.50;;;8.20;;
24801;SDS011;12898;50.520;12.152;2023-08-21T10:50:58;13.05;;;7.85;;
24801;SDS011;12898;50.520;12.152;2023-08-21T10:53:30;12.15;;;7.82;;
24801;SDS011;12898;50.520;12.152;2023-08-21T10:55:57;9.85;;;7.40;;
24801;SDS011;12898;50.520;12.152;2023-08-21T10:58:26;13.45;;;7.63;;
24801;SDS011;12898;50.520;12.152;2023-08-21T11:00:58;11.02;;;7.30;;
24801;SDS011;12898;50.520;12.152;2023-08-21T11:03:25;12.73;;;7.20;;
24801;SDS011;12898;50.520;12.152;2023-08-21T11:06:00;11.35;;;6.72;;
24801;SDS011;12898;50.520;12.152;2023-08-21T11:08:31;10.10;;;6.72;;
24801;SDS011;12898;50.520;12.152;2023-08-21T11:10:58;9.10;;;7.18;;
24801;SDS011;12898;50.520;12.152;2023-08-21T11:13:25;12.70;;;7.53;;
24801;SDS011;12898;50.520;12.152;2023-08-21T11:16:01;11.63;;;7.43;;
24801;SDS011;12898;50.520;12.152;2023-08-21T11:18:35;8.02;;;5.97;;
24801;SDS011;12898;50.520;12.152;2023-08-21T11:21:09;10.20;;;7.60;;
24801;SDS011;12898;50.520;12.152;2023-08-21T11:23:37;11.55;;;7.43;;
24801;SDS011;12898;50.520;12.152;2023-08-21T11:26:09;8.80;;;6.15;;
24801;SDS011;12898;50.520;12.152;2023-08-21T11:28:36;9.00;;;6.80;;
24801;SDS011;12898;50.520;12.152;2023-08-21T11:31:03;8.73;;;5.97;;
24801;SDS011;12898;50.520;12.152;2023-08-21T11:33:31;9.27;;;6.32;;
24801;SDS011;12898;50.520;12.152;2023-08-21T11:35:57;9.45;;;6.28;;
24801;SDS011;12898;50.520;12.152;2023-08-21T11:38:25;9.63;;;6.38;;
24801;SDS011;12898;50.520;12.152;2023-08-21T11:40:57;9.30;;;6.03;;
24801;SDS011;12898;50.520;12.152;2023-08-21T11:46:30;8.32;;;5.90;;
24801;SDS011;12898;50.520;12.152;2023-08-21T11:48:56;11.77;;;6.53;;
24801;SDS011;12898;50.520;12.152;2023-08-21T11:51:22;10.27;;;5.97;;
24801;SDS011;12898;50.520;12.152;2023-08-21T11:53:48;8.10;;;5.50;;
24801;SDS011;12898;50.520;12.152;2023-08-21T11:56:17;7.55;;;5.50;;
24801;SDS011;12898;50.520;12.152;2023-08-21T11:58:44;10.05;;;5.72;;
24801;SDS011;12898;50.520;12.152;2023-08-21T12:01:15;10.82;;;5.72;;
24801;SDS011;12898;50.520;12.152;2023-08-21T12:03:43;8.00;;;5.32;;
24801;SDS011;12898;50.520;12.152;2023-08-21T12:06:10;10.07;;;5.45;;
24801;SDS011;12898;50.520;12.152;2023-08-21T12:08:37;10.60;;;5.55;;
24801;SDS011;12898;50.520;12.152;2023-08-21T12:11:04;9.07;;;5.70;;
24801;SDS011;12898;50.520;12.152;2023-08-21T12:13:31;7.57;;;5.40;;
24801;SDS011;12898;50.520;12.152;2023-08-21T12:15:57;7.93;;;5.00;;
24801;SDS011;12898;50.520;12.152;2023-08-21T12:18:23;7.47;;;5.15;;
24801;SDS011;12898;50.520;12.152;2023-08-21T12:20:49;6.95;;;4.70;;
24801;SDS011;12898;50.520;12.152;2023-08-21T12:23:14;5.25;;;4.68;;
24801;SDS011;12898;50.520;12.152;2023-08-21T12:25:43;9.07;;;5.30;;
24801;SDS011;12898;50.520;12.152;2023-08-21T12:28:09;8.88;;;4.80;;
24801;SDS011;12898;50.520;12.152;2023-08-21T12:30:36;5.88;;;4.70;;
24801;SDS011;12898;50.520;12.152;2023-08-21T12:33:01;6.32;;;4.53;;
24801;SDS011;12898;50.520;12.152;2023-08-21T12:35:27;9.43;;;4.65;;
24801;SDS011;12898;50.520;12.152;2023-08-21T12:37:57;8.73;;;4.45;;
24801;SDS011;12898;50.520;12.152;2023-08-21T12:40:23;9.10;;;5.13;;
24801;SDS011;12898;50.520;12.152;2023-08-21T12:42:49;9.07;;;5.15;;
24801;SDS011;12898;50.520;12.152;2023-08-21T12:45:15;8.07;;;4.78;;
24801;SDS011;12898;50.520;12.152;2023-08-21T12:47:42;8.10;;;4.13;;
24801;SDS011;12898;50.520;12.152;2023-08-21T12:50:08;10.23;;;4.88;;
24801;SDS011;12898;50.520;12.152;2023-08-21T12:52:34;9.23;;;4.53;;
24801;SDS011;12898;50.520;12.152;2023-08-21T12:55:00;6.28;;;4.32;;
24801;SDS011;12898;50.520;12.152;2023-08-21T12:57:28;6.85;;;4.68;;
24801;SDS011;12898;50.520;12.152;2023-08-21T12:59:54;7.35;;;4.60;;
24801;SDS011;12898;50.520;12.152;2023-08-21T13:02:20;6.50;;;4.80;;
24801;SDS011;12898;50.520;12.152;2023-08-21T13:04:48;9.43;;;4.32;;
24801;SDS011;12898;50.520;12.152;2023-08-21T13:07:14;6.25;;;4.60;;
24801;SDS011;12898;50.520;12.152;2023-08-21T13:09:40;8.70;;;4.15;;
24801;SDS011;12898;50.520;12.152;2023-08-21T13:12:05;7.97;;;4.80;;
24801;SDS011;12898;50.520;12.152;2023-08-21T13:14:33;8.93;;;4.80;;
24801;SDS011;12898;50.520;12.152;2023-08-21T13:16:59;9.05;;;5.13;;
24801;SDS011;12898;50.520;12.152;2023-08-21T13:19:24;6.35;;;5.10;;
24801;SDS011;12898;50.520;12.152;2023-08-21T13:21:50;9.00;;;5.45;;
24801;SDS011;12898;50.520;12.152;2023-08-21T13:24:16;8.82;;;5.68;;
24801;SDS011;12898;50.520;12.152;2023-08-21T13:26:42;9.20;;;4.82;;
24801;SDS011;12898;50.520;12.152;2023-08-21T13:29:08;8.65;;;5.35;;
24801;SDS011;12898;50.520;12.152;2023-08-21T13:31:34;6.68;;;4.57;;
24801;SDS011;12898;50.520;12.152;2023-08-21T13:34:00;9.15;;;5.22;;
24801;SDS011;12898;50.520;12.152;2023-08-21T13:36:25;8.20;;;4.70;;
24801;SDS011;12898;50.520;12.152;2023-08-21T13:38:52;7.88;;;5.10;;
24801;SDS011;12898;50.520;12.152;2023-08-21T13:41:17;9.35;;;5.35;;
24801;SDS011;12898;50.520;12.152;2023-08-21T13:43:43;6.57;;;5.22;;
24801;SDS011;12898;50.520;12.152;2023-08-21T13:46:08;7.25;;;5.07;;
24801;SDS011;12898;50.520;12.152;2023-08-21T13:48:34;7.75;;;5.35;;
24801;SDS011;12898;50.520;12.152;2023-08-21T13:51:00;9.52;;;5.00;;
24801;SDS011;12898;50.520;12.152;2023-08-21T13:53:26;6.63;;;5.28;;
24801;SDS011;12898;50.520;12.152;2023-08-21T13:55:51;8.93;;;5.35;;
24801;SDS011;12898;50.520;12.152;2023-08-21T13:58:17;7.30;;;5.20;;
24801;SDS011;12898;50.520;12.152;2023-08-21T14:00:43;9.00;;;5.43;;
24801;SDS011;12898;50.520;12.152;2023-08-21T14:03:09;10.57;;;5.68;;
24801;SDS011;12898;50.520;12.152;2023-08-21T14:05:35;8.23;;;5.20;;
24801;SDS011;12898;50.520;12.152;2023-08-21T14:08:01;10.27;;;5.78;;
24801;SDS011;12898;50.520;12.152;2023-08-21T14:10:28;7.63;;;5.35;;
24801;SDS011;12898;50.520;12.152;2023-08-21T14:12:55;10.32;;;5.75;;
24801;SDS011;12898;50.520;12.152;2023-08-21T14:15:22;9.10;;;5.18;;
24801;SDS011;12898;50.520;12.152;2023-08-21T14:17:48;7.93;;;5.35;;
24801;SDS011;12898;50.520;12.152;2023-08-21T14:20:14;8.60;;;5.15;;
24801;SDS011;12898;50.520;12.152;2023-08-21T14:22:40;8.82;;;4.88;;
24801;SDS011;12898;50.520;12.152;2023-08-21T14:25:06;9.32;;;5.78;;
24801;SDS011;12898;50.520;12.152;2023-08-21T14:27:32;8.63;;;5.15;;